Marble City, Oklahoma
Current Conditions -  °F | °C
As of 9:55 PM on Wednesday 17 Dec 2014 (Local Time) from KJSV Reporting Station
Drizzle Drizzle  
Wind Chill: 30°   Ceiling: 900
Heat Index: 36°   Visibility: 7mi
Dew Point: 34°   Wind: 7mph
Humidity: 93%   Direction: 90°E
Pressure: 30.23"   Gusts: NA
Location:  35.58°N, 94.82°W
Report Text: KJSV 180355Z AUTO 09006KT 7SM -DZ BKN009 BKN029 OVC046 02/01 A3023 RMK AO2 P0001
Loading
Personal Weather Stations






























Interactive Weather Map New forecast layout! Learn more

10-Day Weather Forecast

Advertisements
Track Severe Weather on mobile